sensor_id;sensor_type;location;lat;lon;timestamp;temperature;humidity
18291;DHT22;9271;48.590;8.866;2023-02-28T00:00:23;0.30;63.00
18291;DHT22;9271;48.590;8.866;2023-02-28T00:02:51;0.30;64.00
18291;DHT22;9271;48.590;8.866;2023-02-28T00:05:19;0.30;63.30
18291;DHT22;9271;48.590;8.866;2023-02-28T00:07:47;0.20;63.60
18291;DHT22;9271;48.590;8.866;2023-02-28T00:12:44;0.00;65.00
18291;DHT22;9271;48.590;8.866;2023-02-28T00:15:11;0.10;65.00
18291;DHT22;9271;48.590;8.866;2023-02-28T00:17:38;0.20;64.80
18291;DHT22;9271;48.590;8.866;2023-02-28T00:20:07;0.20;65.80
18291;DHT22;9271;48.590;8.866;2023-02-28T00:22:35;0.30;65.00
18291;DHT22;9271;48.590;8.866;2023-02-28T00:25:03;0.30;64.80
18291;DHT22;9271;48.590;8.866;2023-02-28T00:27:29;0.30;64.70
18291;DHT22;9271;48.590;8.866;2023-02-28T00:29:56;0.30;64.80
18291;DHT22;9271;48.590;8.866;2023-02-28T00:32:23;0.30;65.00
18291;DHT22;9271;48.590;8.866;2023-02-28T00:34:49;0.20;65.70
18291;DHT22;9271;48.590;8.866;2023-02-28T00:37:17;0.30;65.30
18291;DHT22;9271;48.590;8.866;2023-02-28T00:39:44;0.40;66.00
18291;DHT22;9271;48.590;8.866;2023-02-28T00:42:11;0.30;65.90
18291;DHT22;9271;48.590;8.866;2023-02-28T00:44:37;0.30;66.50
18291;DHT22;9271;48.590;8.866;2023-02-28T00:47:04;0.40;66.00
18291;DHT22;9271;48.590;8.866;2023-02-28T00:49:31;0.40;66.00
18291;DHT22;9271;48.590;8.866;2023-02-28T00:51:57;0.30;66.10
18291;DHT22;9271;48.590;8.866;2023-02-28T00:54:26;0.30;66.50
18291;DHT22;9271;48.590;8.866;2023-02-28T00:56:52;0.20;66.60
18291;DHT22;9271;48.590;8.866;2023-02-28T00:59:19;0.20;66.90
18291;DHT22;9271;48.590;8.866;2023-02-28T01:01:46;0.20;67.40
18291;DHT22;9271;48.590;8.866;2023-02-28T01:04:14;0.10;67.60
18291;DHT22;9271;48.590;8.866;2023-02-28T01:06:41;0.10;67.20
18291;DHT22;9271;48.590;8.866;2023-02-28T01:09:08;0.10;67.40
18291;DHT22;9271;48.590;8.866;2023-02-28T01:11:36;0.10;68.00
18291;DHT22;9271;48.590;8.866;2023-02-28T01:14:03;0.10;68.90
18291;DHT22;9271;48.590;8.866;2023-02-28T01:16:31;0.10;67.90
18291;DHT22;9271;48.590;8.866;2023-02-28T01:18:58;0.00;68.10
18291;DHT22;9271;48.590;8.866;2023-02-28T01:21:25;0.00;69.20
18291;DHT22;9271;48.590;8.866;2023-02-28T01:23:51;-0.10;68.70
18291;DHT22;9271;48.590;8.866;2023-02-28T01:26:20;-0.10;69.20
18291;DHT22;9271;48.590;8.866;2023-02-28T01:28:49;-0.20;69.10
18291;DHT22;9271;48.590;8.866;2023-02-28T01:31:16;-0.30;69.90
18291;DHT22;9271;48.590;8.866;2023-02-28T01:33:43;-0.40;69.70
18291;DHT22;9271;48.590;8.866;2023-02-28T01:36:12;-0.30;70.20
18291;DHT22;9271;48.590;8.866;2023-02-28T01:38:39;-0.30;69.90
18291;DHT22;9271;48.590;8.866;2023-02-28T01:41:07;-0.30;71.10
18291;DHT22;9271;48.590;8.866;2023-02-28T01:43:55;-0.30;70.10
18291;DHT22;9271;48.590;8.866;2023-02-28T01:46:22;-0.30;71.50
18291;DHT22;9271;48.590;8.866;2023-02-28T01:48:51;-0.30;71.70
18291;DHT22;9271;48.590;8.866;2023-02-28T01:51:21;-0.40;71.70
18291;DHT22;9271;48.590;8.866;2023-02-28T01:53:52;-0.40;72.20
18291;DHT22;9271;48.590;8.866;2023-02-28T01:56:26;-0.30;71.90
18291;DHT22;9271;48.590;8.866;2023-02-28T01:58:56;-0.20;72.60
18291;DHT22;9271;48.590;8.866;2023-02-28T02:01:24;-0.30;72.50
18291;DHT22;9271;48.590;8.866;2023-02-28T02:03:53;-0.40;72.90
18291;DHT22;9271;48.590;8.866;2023-02-28T02:06:22;-0.50;72.70
18291;DHT22;9271;48.590;8.866;2023-02-28T02:08:49;-0.50;73.60
18291;DHT22;9271;48.590;8.866;2023-02-28T02:11:19;-0.40;73.90
18291;DHT22;9271;48.590;8.866;2023-02-28T02:13:59;-0.50;74.20
18291;DHT22;9271;48.590;8.866;2023-02-28T02:16:41;-0.40;74.40
18291;DHT22;9271;48.590;8.866;2023-02-28T02:19:23;-0.40;74.60
18291;DHT22;9271;48.590;8.866;2023-02-28T02:22:18;-0.40;74.90
18291;DHT22;9271;48.590;8.866;2023-02-28T02:25:06;-0.30;75.00
18291;DHT22;9271;48.590;8.866;2023-02-28T02:30:56;-0.30;75.80
18291;DHT22;9271;48.590;8.866;2023-02-28T02:36:24;-0.40;77.20
18291;DHT22;9271;48.590;8.866;2023-02-28T02:38:58;-0.30;76.70
18291;DHT22;9271;48.590;8.866;2023-02-28T02:41:34;-0.30;76.20
18291;DHT22;9271;48.590;8.866;2023-02-28T02:44:06;-0.10;77.10
18291;DHT22;9271;48.590;8.866;2023-02-28T02:46:39;-0.20;76.70
18291;DHT22;9271;48.590;8.866;2023-02-28T02:49:11;-0.20;77.20
18291;DHT22;9271;48.590;8.866;2023-02-28T02:51:41;-0.20;77.40
18291;DHT22;9271;48.590;8.866;2023-02-28T02:54:13;-0.10;77.40
18291;DHT22;9271;48.590;8.866;2023-02-28T02:56:42;0.00;77.50
18291;DHT22;9271;48.590;8.866;2023-02-28T02:59:12;-0.10;77.40
18291;DHT22;9271;48.590;8.866;2023-02-28T03:01:41;-0.10;77.60
18291;DHT22;9271;48.590;8.866;2023-02-28T03:04:10;-0.20;78.00
18291;DHT22;9271;48.590;8.866;2023-02-28T03:06:38;-0.20;78.60
18291;DHT22;9271;48.590;8.866;2023-02-28T03:09:06;-0.10;80.10
18291;DHT22;9271;48.590;8.866;2023-02-28T03:11:35;-0.10;79.00
18291;DHT22;9271;48.590;8.866;2023-02-28T03:14:27;-0.10;79.60
18291;DHT22;9271;48.590;8.866;2023-02-28T03:20:10;-0.20;80.80
18291;DHT22;9271;48.590;8.866;2023-02-28T03:22:52;-0.20;80.80
18291;DHT22;9271;48.590;8.866;2023-02-28T03:25:31;-0.20;81.10
18291;DHT22;9271;48.590;8.866;2023-02-28T03:28:03;-0.10;82.90
18291;DHT22;9271;48.590;8.866;2023-02-28T03:30:36;-0.10;81.50
18291;DHT22;9271;48.590;8.866;2023-02-28T03:33:08;-0.10;81.90
18291;DHT22;9271;48.590;8.866;2023-02-28T03:35:40;0.00;82.30
18291;DHT22;9271;48.590;8.866;2023-02-28T03:38:12;0.00;81.90
18291;DHT22;9271;48.590;8.866;2023-02-28T03:40:46;0.00;82.50
18291;DHT22;9271;48.590;8.866;2023-02-28T03:43:19;0.10;82.60
18291;DHT22;9271;48.590;8.866;2023-02-28T03:45:50;0.20;82.30
18291;DHT22;9271;48.590;8.866;2023-02-28T03:48:20;0.20;82.50
18291;DHT22;9271;48.590;8.866;2023-02-28T03:50:50;0.40;82.90
18291;DHT22;9271;48.590;8.866;2023-02-28T03:53:22;0.60;82.10
18291;DHT22;9271;48.590;8.866;2023-02-28T03:55:56;0.60;81.70
18291;DHT22;9271;48.590;8.866;2023-02-28T03:58:28;0.60;82.00
18291;DHT22;9271;48.590;8.866;2023-02-28T04:01:01;0.50;82.10
18291;DHT22;9271;48.590;8.866;2023-02-28T04:03:34;0.70;81.70
18291;DHT22;9271;48.590;8.866;2023-02-28T04:06:01;0.50;82.10
18291;DHT22;9271;48.590;8.866;2023-02-28T04:08:28;0.60;83.10
18291;DHT22;9271;48.590;8.866;2023-02-28T04:11:00;0.70;83.00
18291;DHT22;9271;48.590;8.866;2023-02-28T04:13:27;0.70;82.90
18291;DHT22;9271;48.590;8.866;2023-02-28T04:15:54;0.70;83.10
18291;DHT22;9271;48.590;8.866;2023-02-28T04:18:21;0.70;83.40
18291;DHT22;9271;48.590;8.866;2023-02-28T04:20:47;0.70;83.50
18291;DHT22;9271;48.590;8.866;2023-02-28T04:23:14;0.90;83.40
18291;DHT22;9271;48.590;8.866;2023-02-28T04:25:40;0.80;84.10
18291;DHT22;9271;48.590;8.866;2023-02-28T04:28:08;0.80;84.30
18291;DHT22;9271;48.590;8.866;2023-02-28T04:30:37;0.90;84.20
18291;DHT22;9271;48.590;8.866;2023-02-28T04:33:04;0.90;84.20
18291;DHT22;9271;48.590;8.866;2023-02-28T04:35:31;0.70;85.70
18291;DHT22;9271;48.590;8.866;2023-02-28T04:37:57;0.70;85.40
18291;DHT22;9271;48.590;8.866;2023-02-28T04:40:24;0.80;85.30
18291;DHT22;9271;48.590;8.866;2023-02-28T04:42:51;0.80;85.80
18291;DHT22;9271;48.590;8.866;2023-02-28T04:45:18;0.90;85.80
18291;DHT22;9271;48.590;8.866;2023-02-28T04:47:45;1.00;85.30
18291;DHT22;9271;48.590;8.866;2023-02-28T04:50:12;0.90;86.20
18291;DHT22;9271;48.590;8.866;2023-02-28T04:52:38;0.90;86.20
18291;DHT22;9271;48.590;8.866;2023-02-28T04:55:06;0.80;86.70
18291;DHT22;9271;48.590;8.866;2023-02-28T04:57:32;0.80;86.30
18291;DHT22;9271;48.590;8.866;2023-02-28T04:59:59;0.90;88.00
18291;DHT22;9271;48.590;8.866;2023-02-28T05:02:27;0.90;87.30
18291;DHT22;9271;48.590;8.866;2023-02-28T05:04:54;0.90;87.00
18291;DHT22;9271;48.590;8.866;2023-02-28T05:07:20;1.00;86.90
18291;DHT22;9271;48.590;8.866;2023-02-28T05:09:47;1.00;86.90
18291;DHT22;9271;48.590;8.866;2023-02-28T05:12:14;1.10;86.90
18291;DHT22;9271;48.590;8.866;2023-02-28T05:14:41;1.10;87.40
18291;DHT22;9271;48.590;8.866;2023-02-28T05:17:08;1.10;88.50
18291;DHT22;9271;48.590;8.866;2023-02-28T05:19:36;1.10;88.10
18291;DHT22;9271;48.590;8.866;2023-02-28T05:22:03;1.10;87.90
18291;DHT22;9271;48.590;8.866;2023-02-28T05:24:30;1.20;88.50
18291;DHT22;9271;48.590;8.866;2023-02-28T05:26:56;1.40;89.10
18291;DHT22;9271;48.590;8.866;2023-02-28T05:29:23;1.30;88.80
18291;DHT22;9271;48.590;8.866;2023-02-28T05:31:50;1.10;89.10
18291;DHT22;9271;48.590;8.866;2023-02-28T05:34:16;1.10;89.50
18291;DHT22;9271;48.590;8.866;2023-02-28T05:36:44;0.90;90.50
18291;DHT22;9271;48.590;8.866;2023-02-28T05:39:11;1.00;90.60
18291;DHT22;9271;48.590;8.866;2023-02-28T05:41:40;1.20;90.40
18291;DHT22;9271;48.590;8.866;2023-02-28T05:44:07;1.20;90.40
18291;DHT22;9271;48.590;8.866;2023-02-28T05:46:33;1.20;90.30
18291;DHT22;9271;48.590;8.866;2023-02-28T05:49:00;1.20;90.60
18291;DHT22;9271;48.590;8.866;2023-02-28T05:51:27;1.20;90.80
18291;DHT22;9271;48.590;8.866;2023-02-28T05:53:59;1.30;91.00
18291;DHT22;9271;48.590;8.866;2023-02-28T05:56:25;1.40;91.00
18291;DHT22;9271;48.590;8.866;2023-02-28T05:58:52;1.40;90.90
18291;DHT22;9271;48.590;8.866;2023-02-28T06:01:24;1.30;91.10
18291;DHT22;9271;48.590;8.866;2023-02-28T06:03:51;1.30;91.30
18291;DHT22;9271;48.590;8.866;2023-02-28T06:06:17;1.40;91.60
18291;DHT22;9271;48.590;8.866;2023-02-28T06:08:44;1.20;91.60
18291;DHT22;9271;48.590;8.866;2023-02-28T06:11:12;1.20;91.70
18291;DHT22;9271;48.590;8.866;2023-02-28T06:13:39;1.00;91.80
18291;DHT22;9271;48.590;8.866;2023-02-28T06:16:06;1.00;92.30
18291;DHT22;9271;48.590;8.866;2023-02-28T06:18:33;1.20;92.50
18291;DHT22;9271;48.590;8.866;2023-02-28T06:20:59;1.30;91.90
18291;DHT22;9271;48.590;8.866;2023-02-28T06:23:26;1.30;92.40
18291;DHT22;9271;48.590;8.866;2023-02-28T06:25:53;1.10;92.70
18291;DHT22;9271;48.590;8.866;2023-02-28T06:28:25;0.80;92.90
18291;DHT22;9271;48.590;8.866;2023-02-28T06:30:52;0.80;93.50
18291;DHT22;9271;48.590;8.866;2023-02-28T06:33:18;0.90;93.50
18291;DHT22;9271;48.590;8.866;2023-02-28T06:35:46;0.80;93.60
18291;DHT22;9271;48.590;8.866;2023-02-28T06:38:13;0.90;93.40
18291;DHT22;9271;48.590;8.866;2023-02-28T06:40:40;0.90;93.60
18291;DHT22;9271;48.590;8.866;2023-02-28T06:43:06;0.80;94.10
18291;DHT22;9271;48.590;8.866;2023-02-28T06:45:34;0.70;93.80
18291;DHT22;9271;48.590;8.866;2023-02-28T06:48:01;0.80;93.80
18291;DHT22;9271;48.590;8.866;2023-02-28T06:50:27;0.90;93.80
18291;DHT22;9271;48.590;8.866;2023-02-28T06:52:56;1.00;94.00
18291;DHT22;9271;48.590;8.866;2023-02-28T06:55:22;1.20;93.70
18291;DHT22;9271;48.590;8.866;2023-02-28T06:57:49;1.40;93.20
18291;DHT22;9271;48.590;8.866;2023-02-28T07:00:17;1.30;93.10
18291;DHT22;9271;48.590;8.866;2023-02-28T07:02:45;1.40;93.30
18291;DHT22;9271;48.590;8.866;2023-02-28T07:05:12;1.10;93.30
18291;DHT22;9271;48.590;8.866;2023-02-28T07:07:39;1.30;93.60
18291;DHT22;9271;48.590;8.866;2023-02-28T07:10:10;1.60;93.20
18291;DHT22;9271;48.590;8.866;2023-02-28T07:12:38;1.60;92.60
18291;DHT22;9271;48.590;8.866;2023-02-28T07:15:05;1.80;92.60
18291;DHT22;9271;48.590;8.866;2023-02-28T07:17:32;1.60;92.40
18291;DHT22;9271;48.590;8.866;2023-02-28T07:20:00;1.80;92.10
18291;DHT22;9271;48.590;8.866;2023-02-28T07:22:29;2.10;91.40
18291;DHT22;9271;48.590;8.866;2023-02-28T07:24:56;2.20;90.90
18291;DHT22;9271;48.590;8.866;2023-02-28T07:27:23;2.30;91.10
18291;DHT22;9271;48.590;8.866;2023-02-28T07:29:53;2.30;90.70
18291;DHT22;9271;48.590;8.866;2023-02-28T07:32:20;2.20;91.00
18291;DHT22;9271;48.590;8.866;2023-02-28T07:34:46;2.40;90.80
18291;DHT22;9271;48.590;8.866;2023-02-28T07:37:15;2.40;90.80
18291;DHT22;9271;48.590;8.866;2023-02-28T07:39:41;2.40;90.70
18291;DHT22;9271;48.590;8.866;2023-02-28T07:42:08;2.30;90.20
18291;DHT22;9271;48.590;8.866;2023-02-28T07:44:37;2.40;90.50
18291;DHT22;9271;48.590;8.866;2023-02-28T07:47:06;2.50;90.50
18291;DHT22;9271;48.590;8.866;2023-02-28T07:49:33;2.20;90.30
18291;DHT22;9271;48.590;8.866;2023-02-28T07:51:59;2.20;90.30
18291;DHT22;9271;48.590;8.866;2023-02-28T07:54:27;2.30;90.40
18291;DHT22;9271;48.590;8.866;2023-02-28T07:56:54;2.40;90.40
18291;DHT22;9271;48.590;8.866;2023-02-28T07:59:20;2.50;90.00
18291;DHT22;9271;48.590;8.866;2023-02-28T08:01:47;2.50;89.60
18291;DHT22;9271;48.590;8.866;2023-02-28T08:04:15;2.50;89.30
18291;DHT22;9271;48.590;8.866;2023-02-28T08:06:42;2.40;89.20
18291;DHT22;9271;48.590;8.866;2023-02-28T08:09:09;2.40;87.90
18291;DHT22;9271;48.590;8.866;2023-02-28T08:11:38;1.80;89.40
18291;DHT22;9271;48.590;8.866;2023-02-28T08:14:04;1.90;90.10
18291;DHT22;9271;48.590;8.866;2023-02-28T08:16:31;2.10;90.00
18291;DHT22;9271;48.590;8.866;2023-02-28T08:18:58;2.10;89.20
18291;DHT22;9271;48.590;8.866;2023-02-28T08:21:24;1.70;89.70
18291;DHT22;9271;48.590;8.866;2023-02-28T08:23:51;1.70;90.30
18291;DHT22;9271;48.590;8.866;2023-02-28T08:26:19;1.90;89.70
18291;DHT22;9271;48.590;8.866;2023-02-28T08:28:47;1.80;89.70
18291;DHT22;9271;48.590;8.866;2023-02-28T08:31:15;1.80;89.40
18291;DHT22;9271;48.590;8.866;2023-02-28T08:33:42;2.20;89.50
18291;DHT22;9271;48.590;8.866;2023-02-28T08:36:10;2.20;89.10
18291;DHT22;9271;48.590;8.866;2023-02-28T08:38:37;2.10;88.40
18291;DHT22;9271;48.590;8.866;2023-02-28T08:41:06;2.10;88.40
18291;DHT22;9271;48.590;8.866;2023-02-28T08:43:34;2.20;88.90
18291;DHT22;9271;48.590;8.866;2023-02-28T08:46:03;2.20;89.30
18291;DHT22;9271;48.590;8.866;2023-02-28T08:48:31;2.00;89.50
18291;DHT22;9271;48.590;8.866;2023-02-28T08:50:59;2.40;87.80
18291;DHT22;9271;48.590;8.866;2023-02-28T08:53:26;2.80;86.80
18291;DHT22;9271;48.590;8.866;2023-02-28T08:55:57;2.60;86.30
18291;DHT22;9271;48.590;8.866;2023-02-28T08:58:24;2.40;86.70
18291;DHT22;9271;48.590;8.866;2023-02-28T09:00:50;2.50;87.70
18291;DHT22;9271;48.590;8.866;2023-02-28T09:03:19;2.60;87.50
18291;DHT22;9271;48.590;8.866;2023-02-28T09:05:52;2.70;86.20
18291;DHT22;9271;48.590;8.866;2023-02-28T09:08:19;3.00;85.70
18291;DHT22;9271;48.590;8.866;2023-02-28T09:10:45;3.00;84.40
18291;DHT22;9271;48.590;8.866;2023-02-28T09:13:12;2.90;84.60
18291;DHT22;9271;48.590;8.866;2023-02-28T09:15:39;2.80;84.90
18291;DHT22;9271;48.590;8.866;2023-02-28T09:18:05;3.10;86.10
18291;DHT22;9271;48.590;8.866;2023-02-28T09:20:33;3.10;85.00
18291;DHT22;9271;48.590;8.866;2023-02-28T09:23:00;2.90;84.40
18291;DHT22;9271;48.590;8.866;2023-02-28T09:25:27;2.90;85.70
18291;DHT22;9271;48.590;8.866;2023-02-28T09:27:53;2.90;85.50
18291;DHT22;9271;48.590;8.866;2023-02-28T09:30:20;3.00;83.90
18291;DHT22;9271;48.590;8.866;2023-02-28T09:32:47;2.90;83.40
18291;DHT22;9271;48.590;8.866;2023-02-28T09:35:19;2.80;84.40
18291;DHT22;9271;48.590;8.866;2023-02-28T09:37:48;3.20;84.10
18291;DHT22;9271;48.590;8.866;2023-02-28T09:40:15;3.60;83.70
18291;DHT22;9271;48.590;8.866;2023-02-28T09:42:45;3.80;82.50
18291;DHT22;9271;48.590;8.866;2023-02-28T09:45:21;3.90;81.80
18291;DHT22;9271;48.590;8.866;2023-02-28T09:47:50;3.80;80.70
18291;DHT22;9271;48.590;8.866;2023-02-28T09:50:23;3.90;79.80
18291;DHT22;9271;48.590;8.866;2023-02-28T09:52:56;4.10;79.60
18291;DHT22;9271;48.590;8.866;2023-02-28T09:55:28;4.30;80.10
18291;DHT22;9271;48.590;8.866;2023-02-28T09:57:56;4.30;78.70
18291;DHT22;9271;48.590;8.866;2023-02-28T10:00:31;4.30;78.60
18291;DHT22;9271;48.590;8.866;2023-02-28T10:03:15;4.20;78.90
18291;DHT22;9271;48.590;8.866;2023-02-28T10:05:52;3.90;77.10
18291;DHT22;9271;48.590;8.866;2023-02-28T10:08:25;3.80;78.90
18291;DHT22;9271;48.590;8.866;2023-02-28T10:10:55;3.80;79.40
18291;DHT22;9271;48.590;8.866;2023-02-28T10:13:27;3.70;79.00
18291;DHT22;9271;48.590;8.866;2023-02-28T10:16:01;3.50;79.40
18291;DHT22;9271;48.590;8.866;2023-02-28T10:18:35;3.70;79.80
18291;DHT22;9271;48.590;8.866;2023-02-28T10:21:04;3.60;79.00
18291;DHT22;9271;48.590;8.866;2023-02-28T10:23:35;3.50;78.90
18291;DHT22;9271;48.590;8.866;2023-02-28T10:26:11;3.30;78.30
18291;DHT22;9271;48.590;8.866;2023-02-28T10:28:38;3.70;79.10
18291;DHT22;9271;48.590;8.866;2023-02-28T10:31:09;4.10;77.70
18291;DHT22;9271;48.590;8.866;2023-02-28T10:33:38;4.20;76.70
18291;DHT22;9271;48.590;8.866;2023-02-28T10:36:05;4.30;76.50
18291;DHT22;9271;48.590;8.866;2023-02-28T10:38:35;4.30;76.10
18291;DHT22;9271;48.590;8.866;2023-02-28T10:41:05;4.20;76.30
18291;DHT22;9271;48.590;8.866;2023-02-28T10:43:33;4.40;75.70
18291;DHT22;9271;48.590;8.866;2023-02-28T10:46:02;4.50;74.30
18291;DHT22;9271;48.590;8.866;2023-02-28T10:48:33;4.60;73.90
18291;DHT22;9271;48.590;8.866;2023-02-28T10:51:01;5.10;75.00
18291;DHT22;9271;48.590;8.866;2023-02-28T10:53:34;5.20;72.30
18291;DHT22;9271;48.590;8.866;2023-02-28T10:56:03;5.30;73.30
18291;DHT22;9271;48.590;8.866;2023-02-28T10:58:45;5.50;72.30
18291;DHT22;9271;48.590;8.866;2023-02-28T11:01:14;5.20;71.90
18291;DHT22;9271;48.590;8.866;2023-02-28T11:03:41;5.10;71.90
18291;DHT22;9271;48.590;8.866;2023-02-28T11:06:14;5.00;72.00
18291;DHT22;9271;48.590;8.866;2023-02-28T11:08:51;5.30;71.40
18291;DHT22;9271;48.590;8.866;2023-02-28T11:11:20;5.10;71.60
18291;DHT22;9271;48.590;8.866;2023-02-28T11:13:51;4.80;71.40
18291;DHT22;9271;48.590;8.866;2023-02-28T11:16:19;5.20;71.50
18291;DHT22;9271;48.590;8.866;2023-02-28T11:18:48;5.80;70.10
18291;DHT22;9271;48.590;8.866;2023-02-28T11:21:19;6.30;68.00
18291;DHT22;9271;48.590;8.866;2023-02-28T11:23:51;6.40;68.50
18291;DHT22;9271;48.590;8.866;2023-02-28T11:26:37;7.00;67.30
18291;DHT22;9271;48.590;8.866;2023-02-28T11:29:11;6.40;65.70
18291;DHT22;9271;48.590;8.866;2023-02-28T11:31:38;5.80;67.30
18291;DHT22;9271;48.590;8.866;2023-02-28T11:34:22;5.60;69.20
18291;DHT22;9271;48.590;8.866;2023-02-28T11:36:49;5.90;67.50
18291;DHT22;9271;48.590;8.866;2023-02-28T11:39:19;6.00;67.40
18291;DHT22;9271;48.590;8.866;2023-02-28T11:42:00;6.40;66.40
18291;DHT22;9271;48.590;8.866;2023-02-28T11:44:45;7.30;65.10
18291;DHT22;9271;48.590;8.866;2023-02-28T11:47:20;7.30;63.30
18291;DHT22;9271;48.590;8.866;2023-02-28T11:50:02;7.00;64.00
18291;DHT22;9271;48.590;8.866;2023-02-28T11:52:36;7.10;62.10
18291;DHT22;9271;48.590;8.866;2023-02-28T11:55:16;7.50;62.60
18291;DHT22;9271;48.590;8.866;2023-02-28T11:58:01;8.00;60.60
18291;DHT22;9271;48.590;8.866;2023-02-28T12:00:40;9.00;59.70
18291;DHT22;9271;48.590;8.866;2023-02-28T12:03:21;9.10;58.00
18291;DHT22;9271;48.590;8.866;2023-02-28T12:05:56;8.50;57.80
18291;DHT22;9271;48.590;8.866;2023-02-28T12:08:46;8.50;56.90
18291;DHT22;9271;48.590;8.866;2023-02-28T12:11:24;8.90;57.00
18291;DHT22;9271;48.590;8.866;2023-02-28T12:26:50;10.70;52.10
18291;DHT22;9271;48.590;8.866;2023-02-28T12:29:21;11.90;50.20
18291;DHT22;9271;48.590;8.866;2023-02-28T12:31:53;12.70;47.30
18291;DHT22;9271;48.590;8.866;2023-02-28T12:34:24;11.60;47.60
18291;DHT22;9271;48.590;8.866;2023-02-28T12:36:53;11.80;49.50
18291;DHT22;9271;48.590;8.866;2023-02-28T12:39:26;12.80;47.20
18291;DHT22;9271;48.590;8.866;2023-02-28T12:41:58;11.80;47.30
18291;DHT22;9271;48.590;8.866;2023-02-28T12:44:30;11.90;48.30
18291;DHT22;9271;48.590;8.866;2023-02-28T12:47:00;12.80;46.50
18291;DHT22;9271;48.590;8.866;2023-02-28T12:49:31;14.10;44.90
18291;DHT22;9271;48.590;8.866;2023-02-28T12:52:00;13.80;44.30
18291;DHT22;9271;48.590;8.866;2023-02-28T12:54:32;13.00;43.20
18291;DHT22;9271;48.590;8.866;2023-02-28T12:57:09;12.50;44.50
18291;DHT22;9271;48.590;8.866;2023-02-28T12:59:40;11.70;45.30
18291;DHT22;9271;48.590;8.866;2023-02-28T13:02:43;10.60;46.00
18291;DHT22;9271;48.590;8.866;2023-02-28T13:05:45;10.50;47.00
18291;DHT22;9271;48.590;8.866;2023-02-28T13:08:35;11.10;47.20
18291;DHT22;9271;48.590;8.866;2023-02-28T13:11:03;13.10;45.20
18291;DHT22;9271;48.590;8.866;2023-02-28T13:13:31;15.30;41.20
18291;DHT22;9271;48.590;8.866;2023-02-28T13:16:01;16.60;39.00
18291;DHT22;9271;48.590;8.866;2023-02-28T13:18:34;18.20;35.80
18291;DHT22;9271;48.590;8.866;2023-02-28T13:21:03;17.10;35.00
18291;DHT22;9271;48.590;8.866;2023-02-28T13:24:00;16.20;35.80
18291;DHT22;9271;48.590;8.866;2023-02-28T13:29:32;17.50;35.00
18291;DHT22;9271;48.590;8.866;2023-02-28T13:32:35;16.50;35.20
18291;DHT22;9271;48.590;8.866;2023-02-28T13:35:36;15.70;36.10
18291;DHT22;9271;48.590;8.866;2023-02-28T13:38:23;15.60;36.20
18291;DHT22;9271;48.590;8.866;2023-02-28T13:40:50;15.60;35.70
18291;DHT22;9271;48.590;8.866;2023-02-28T13:43:17;16.60;35.60
18291;DHT22;9271;48.590;8.866;2023-02-28T13:46:11;16.70;34.50
18291;DHT22;9271;48.590;8.866;2023-02-28T13:48:39;16.70;34.70
18291;DHT22;9271;48.590;8.866;2023-02-28T13:51:38;16.00;34.40
18291;DHT22;9271;48.590;8.866;2023-02-28T13:54:22;16.40;34.80
18291;DHT22;9271;48.590;8.866;2023-02-28T13:56:57;15.40;35.70
18291;DHT22;9271;48.590;8.866;2023-02-28T13:59:35;14.10;37.50
18291;DHT22;9271;48.590;8.866;2023-02-28T14:02:27;14.60;37.90
18291;DHT22;9271;48.590;8.866;2023-02-28T14:05:02;14.90;36.50
18291;DHT22;9271;48.590;8.866;2023-02-28T14:07:33;15.00;36.50
18291;DHT22;9271;48.590;8.866;2023-02-28T14:10:05;15.50;36.50
18291;DHT22;9271;48.590;8.866;2023-02-28T14:12:53;15.80;34.60
18291;DHT22;9271;48.590;8.866;2023-02-28T14:15:47;14.80;36.10
18291;DHT22;9271;48.590;8.866;2023-02-28T14:18:24;15.20;37.10
18291;DHT22;9271;48.590;8.866;2023-02-28T14:20:55;14.80;36.10
18291;DHT22;9271;48.590;8.866;2023-02-28T14:23:35;13.50;38.70
18291;DHT22;9271;48.590;8.866;2023-02-28T14:26:13;15.30;38.00
18291;DHT22;9271;48.590;8.866;2023-02-28T14:28:51;17.70;35.20
18291;DHT22;9271;48.590;8.866;2023-02-28T14:31:28;20.10;32.00
18291;DHT22;9271;48.590;8.866;2023-02-28T14:34:35;19.70;30.20
18291;DHT22;9271;48.590;8.866;2023-02-28T14:37:15;19.40;30.60
18291;DHT22;9271;48.590;8.866;2023-02-28T14:39:46;19.70;30.70
18291;DHT22;9271;48.590;8.866;2023-02-28T14:42:30;18.50;29.80
18291;DHT22;9271;48.590;8.866;2023-02-28T14:44:58;18.20;31.90
18291;DHT22;9271;48.590;8.866;2023-02-28T14:47:31;17.80;31.40
18291;DHT22;9271;48.590;8.866;2023-02-28T14:50:04;16.60;31.70
18291;DHT22;9271;48.590;8.866;2023-02-28T14:52:32;16.40;33.50
18291;DHT22;9271;48.590;8.866;2023-02-28T14:55:01;16.80;33.60
18291;DHT22;9271;48.590;8.866;2023-02-28T14:57:29;16.90;33.00
18291;DHT22;9271;48.590;8.866;2023-02-28T15:00:00;17.80;32.70
18291;DHT22;9271;48.590;8.866;2023-02-28T15:02:31;17.70;31.90
18291;DHT22;9271;48.590;8.866;2023-02-28T15:05:02;16.70;32.90
18291;DHT22;9271;48.590;8.866;2023-02-28T15:07:38;15.40;33.60
18291;DHT22;9271;48.590;8.866;2023-02-28T15:10:10;14.50;36.10
18291;DHT22;9271;48.590;8.866;2023-02-28T15:12:37;14.90;35.40
18291;DHT22;9271;48.590;8.866;2023-02-28T15:15:06;15.10;34.50
18291;DHT22;9271;48.590;8.866;2023-02-28T15:17:33;15.40;34.40
18291;DHT22;9271;48.590;8.866;2023-02-28T15:20:01;14.50;34.10
18291;DHT22;9271;48.590;8.866;2023-02-28T15:22:31;14.40;35.20
18291;DHT22;9271;48.590;8.866;2023-02-28T15:25:02;14.60;35.10
18291;DHT22;9271;48.590;8.866;2023-02-28T15:27:32;15.00;35.20
18291;DHT22;9271;48.590;8.866;2023-02-28T15:30:00;15.20;35.20
18291;DHT22;9271;48.590;8.866;2023-02-28T15:32:34;15.60;35.40
18291;DHT22;9271;48.590;8.866;2023-02-28T15:35:19;15.10;34.10
18291;DHT22;9271;48.590;8.866;2023-02-28T15:37:48;14.50;35.60
18291;DHT22;9271;48.590;8.866;2023-02-28T15:40:25;13.70;36.70
18291;DHT22;9271;48.590;8.866;2023-02-28T15:43:03;13.90;36.60
18291;DHT22;9271;48.590;8.866;2023-02-28T15:45:36;14.20;36.90
18291;DHT22;9271;48.590;8.866;2023-02-28T15:48:04;13.80;37.00
18291;DHT22;9271;48.590;8.866;2023-02-28T15:50:32;12.20;38.00
18291;DHT22;9271;48.590;8.866;2023-02-28T15:53:00;11.90;38.80
18291;DHT22;9271;48.590;8.866;2023-02-28T15:55:30;12.10;39.80
18291;DHT22;9271;48.590;8.866;2023-02-28T15:58:00;12.40;39.10
18291;DHT22;9271;48.590;8.866;2023-02-28T16:00:29;11.30;40.00
18291;DHT22;9271;48.590;8.866;2023-02-28T16:02:58;10.90;40.80
18291;DHT22;9271;48.590;8.866;2023-02-28T16:05:26;10.70;42.10
18291;DHT22;9271;48.590;8.866;2023-02-28T16:07:59;11.40;41.60
18291;DHT22;9271;48.590;8.866;2023-02-28T16:10:27;11.00;41.20
18291;DHT22;9271;48.590;8.866;2023-02-28T16:12:56;10.70;42.10
18291;DHT22;9271;48.590;8.866;2023-02-28T16:15:26;10.70;42.00
18291;DHT22;9271;48.590;8.866;2023-02-28T16:17:54;10.90;42.00
18291;DHT22;9271;48.590;8.866;2023-02-28T16:20:22;11.00;41.80
18291;DHT22;9271;48.590;8.866;2023-02-28T16:22:50;10.60;42.30
18291;DHT22;9271;48.590;8.866;2023-02-28T16:25:19;10.90;42.50
18291;DHT22;9271;48.590;8.866;2023-02-28T16:27:48;10.30;42.00
18291;DHT22;9271;48.590;8.866;2023-02-28T16:30:19;9.40;45.00
18291;DHT22;9271;48.590;8.866;2023-02-28T16:32:47;9.30;45.90
18291;DHT22;9271;48.590;8.866;2023-02-28T16:35:14;9.20;46.00
18291;DHT22;9271;48.590;8.866;2023-02-28T16:37:43;8.90;46.70
18291;DHT22;9271;48.590;8.866;2023-02-28T16:40:14;8.50;47.50
18291;DHT22;9271;48.590;8.866;2023-02-28T16:42:42;8.10;48.10
18291;DHT22;9271;48.590;8.866;2023-02-28T16:45:15;7.60;49.10
18291;DHT22;9271;48.590;8.866;2023-02-28T16:47:45;7.40;49.90